Time;durP1;ratioP1;P1;durP2;ratioP2;P2;SDS_P1;SDS_P2;PMS_P1;PMS_P2;Temp;Humidity;BMP_temperature;BMP_pressure;BME280_temperature;BME280_humidity;BME280_pressure;Samples;Min_cycle;Max_cycle;Signal;HPM_P1;HPM_P2
2021/07/09 00:05:16;;;;;;;3.93;3.60;;;20.20;85.60;;;;;;10423902;28;20213;-31
2021/07/09 00:10:38;;;;;;;5.00;3.90;;;20.20;85.50;;;;;;10414057;28;20202;-31
2021/07/09 00:16:01;;;;;;;4.70;3.87;;;20.20;85.60;;;;;;10412713;28;20228;-32
2021/07/09 00:21:23;;;;;;;7.27;4.30;;;20.30;85.70;;;;;;10390097;28;20198;-33
2021/07/09 00:26:46;;;;;;;4.73;4.27;;;20.20;85.90;;;;;;10371907;28;20305;-32
2021/07/09 00:32:10;;;;;;;4.77;4.17;;;20.20;86.00;;;;;;10391884;28;20664;-33
2021/07/09 00:37:32;;;;;;;5.33;3.90;;;20.20;85.90;;;;;;10408189;28;20431;-31
2021/07/09 00:42:54;;;;;;;4.73;4.23;;;20.20;85.90;;;;;;10383098;28;20206;-32
2021/07/09 00:48:18;;;;;;;4.57;4.17;;;20.20;85.90;;;;;;10406274;28;20217;-33
2021/07/09 00:53:40;;;;;;;5.10;4.30;;;20.20;85.80;;;;;;10400588;28;20194;-35
2021/07/09 00:59:03;;;;;;;5.50;4.87;;;20.20;85.70;;;;;;10371072;28;20222;-33
2021/07/09 01:04:28;;;;;;;6.60;4.10;;;20.20;85.60;;;;;;10370369;28;20194;-32
2021/07/09 01:09:50;;;;;;;9.37;4.67;;;20.20;85.50;;;;;;10406679;28;20210;-32
2021/07/09 01:15:14;;;;;;;5.20;4.27;;;20.20;85.60;;;;;;10412092;28;20248;-32
2021/07/09 01:20:38;;;;;;;4.43;4.03;;;20.20;85.50;;;;;;10380202;28;20201;-34
2021/07/09 01:26:01;;;;;;;4.23;3.80;;;20.30;85.50;;;;;;10398987;28;20222;-31
2021/07/09 01:31:23;;;;;;;4.60;4.20;;;20.20;85.10;;;;;;10370851;28;20190;-33
2021/07/09 01:36:45;;;;;;;5.33;3.70;;;20.20;85.10;;;;;;10370183;28;20222;-31
2021/07/09 01:42:09;;;;;;;5.80;3.70;;;20.20;85.00;;;;;;10408358;28;20209;-30
2021/07/09 01:47:31;;;;;;;4.00;3.60;;;20.20;85.10;;;;;;10395999;28;20221;-33
2021/07/09 01:52:54;;;;;;;4.77;3.90;;;20.20;85.00;;;;;;10369078;28;20211;-31
2021/07/09 01:58:18;;;;;;;5.43;4.30;;;20.20;84.80;;;;;;10388492;28;20217;-30
2021/07/09 02:03:40;;;;;;;5.53;4.07;;;20.20;84.60;;;;;;10418220;28;20581;-33
2021/07/09 02:09:02;;;;;;;4.00;3.60;;;20.20;84.50;;;;;;10408562;28;20697;-34
2021/07/09 02:14:25;;;;;;;4.13;3.73;;;20.20;84.40;;;;;;10399599;28;20198;-31
2021/07/09 02:19:49;;;;;;;6.73;4.40;;;20.20;84.40;;;;;;10377157;28;20223;-30
2021/07/09 02:25:12;;;;;;;8.47;4.27;;;20.20;84.60;;;;;;10412518;28;20321;-32
2021/07/09 02:30:36;;;;;;;4.63;4.23;;;20.20;84.60;;;;;;10417241;28;20194;-33
2021/07/09 02:35:58;;;;;;;6.13;4.57;;;20.20;84.50;;;;;;10416819;28;20221;-32
2021/07/09 02:41:20;;;;;;;11.40;6.10;;;20.20;84.50;;;;;;10396449;28;20692;-31
2021/07/09 02:46:44;;;;;;;9.90;7.40;;;20.20;84.40;;;;;;10386012;28;20676;-31
2021/07/09 02:52:06;;;;;;;8.97;7.00;;;20.20;84.60;;;;;;10417402;28;20201;-31
2021/07/09 02:57:28;;;;;;;10.10;8.40;;;20.20;84.70;;;;;;10416437;28;20233;-33
2021/07/09 03:02:53;;;;;;;12.63;8.37;;;20.20;84.80;;;;;;10416652;28;20209;-34
2021/07/09 03:08:15;;;;;;;17.20;10.30;;;20.20;84.90;;;;;;10414781;28;20693;-34
2021/07/09 03:13:38;;;;;;;17.90;10.97;;;20.20;84.90;;;;;;10396946;28;20202;-32
2021/07/09 03:19:01;;;;;;;17.67;12.03;;;20.20;84.90;;;;;;10399512;28;20233;-34
2021/07/09 03:24:23;;;;;;;13.83;12.33;;;20.20;84.90;;;;;;10376628;28;20198;-35
2021/07/09 03:29:45;;;;;;;13.53;12.07;;;20.20;85.00;;;;;;10373816;28;20211;-31
2021/07/09 03:35:11;;;;;;;17.07;12.70;;;20.20;85.00;;;;;;10373635;28;20205;-33
2021/07/09 03:40:33;;;;;;;16.17;11.97;;;20.20;85.00;;;;;;10374296;28;20218;-34
2021/07/09 03:45:55;;;;;;;19.50;12.00;;;20.10;85.10;;;;;;10373121;28;20217;-35
2021/07/09 03:51:19;;;;;;;17.07;11.37;;;20.20;85.20;;;;;;10374292;28;20198;-34
2021/07/09 03:56:41;;;;;;;15.47;11.33;;;20.10;85.30;;;;;;10391427;28;20218;-34
2021/07/09 04:02:03;;;;;;;11.63;10.03;;;20.10;85.30;;;;;;10374146;28;20197;-34
2021/07/09 04:07:26;;;;;;;11.83;9.83;;;20.20;85.30;;;;;;10377486;28;20563;-36
2021/07/09 04:12:49;;;;;;;10.40;9.40;;;20.20;85.20;;;;;;10404847;28;20190;-31
2021/07/09 04:18:11;;;;;;;9.63;8.73;;;20.20;85.20;;;;;;10412739;28;20709;-30
2021/07/09 04:23:34;;;;;;;11.57;8.37;;;20.20;85.00;;;;;;10379153;28;20205;-33
2021/07/09 04:28:56;;;;;;;13.37;10.77;;;20.20;84.80;;;;;;10397180;28;20206;-32
2021/07/09 04:34:18;;;;;;;11.77;10.57;;;20.20;85.10;;;;;;10371990;28;20198;-36
2021/07/09 04:39:42;;;;;;;14.13;10.27;;;20.20;85.30;;;;;;10381716;28;20232;-31
2021/07/09 04:45:05;;;;;;;11.10;9.17;;;20.20;85.30;;;;;;10385136;28;20202;-31
2021/07/09 04:50:27;;;;;;;8.67;7.83;;;20.20;85.00;;;;;;10370276;28;20186;-31
2021/07/09 04:55:51;;;;;;;9.20;7.93;;;20.20;84.90;;;;;;10372295;28;20226;-31
2021/07/09 05:01:13;;;;;;;10.07;7.80;;;20.20;84.80;;;;;;10409096;28;20202;-31
2021/07/09 05:06:35;;;;;;;11.27;7.53;;;20.20;85.00;;;;;;10412492;28;20293;-33
2021/07/09 05:11:58;;;;;;;8.87;7.97;;;20.20;84.80;;;;;;10386088;28;20197;-31
2021/07/09 05:17:21;;;;;;;8.77;7.63;;;20.20;84.90;;;;;;10370152;28;20228;-32
2021/07/09 05:22:43;;;;;;;8.53;6.47;;;20.20;84.70;;;;;;10395435;28;20202;-33
2021/07/09 05:28:07;;;;;;;7.00;6.30;;;20.20;84.50;;;;;;10407869;28;20221;-35
2021/07/09 05:33:30;;;;;;;6.93;6.20;;;20.20;84.30;;;;;;10418995;28;20204;-33
2021/07/09 05:38:52;;;;;;;6.47;5.23;;;20.20;84.20;;;;;;10419742;28;20225;-34
2021/07/09 05:44:15;;;;;;;10.37;6.73;;;20.20;84.20;;;;;;10417525;28;20245;-34
2021/07/09 05:49:38;;;;;;;12.30;7.87;;;20.20;84.60;;;;;;10386303;28;20221;-31
2021/07/09 05:55:00;;;;;;;9.60;8.60;;;20.10;86.70;;;;;;10410575;28;20199;-30
2021/07/09 06:00:23;;;;;;;9.97;8.43;;;20.10;87.20;;;;;;10436881;23;20233;-25
2021/07/09 06:05:46;;;;;;;12.60;9.47;;;20.10;88.00;;;;;;10422328;28;20204;-24
2021/07/09 06:11:08;;;;;;;12.67;10.70;;;20.10;87.70;;;;;;10376657;28;20191;-25
2021/07/09 06:16:32;;;;;;;15.07;10.93;;;20.10;88.70;;;;;;10376408;28;20280;-23
2021/07/09 06:21:54;;;;;;;11.70;10.10;;;20.10;88.30;;;;;;10414516;28;20585;-23
2021/07/09 06:27:16;;;;;;;14.00;10.50;;;20.10;87.70;;;;;;10390640;28;20225;-25
2021/07/09 06:32:39;;;;;;;12.23;10.07;;;20.10;87.70;;;;;;10385800;28;20614;-25
2021/07/09 06:38:01;;;;;;;10.93;9.70;;;20.10;87.30;;;;;;10374333;28;20211;-24
2021/07/09 06:43:23;;;;;;;10.67;9.57;;;20.20;87.70;;;;;;10390375;28;20202;-24
2021/07/09 06:48:47;;;;;;;11.00;9.27;;;20.10;87.70;;;;;;10407698;28;20230;-24
2021/07/09 06:54:09;;;;;;;12.63;8.50;;;20.20;87.70;;;;;;10373975;28;20199;-24
2021/07/09 06:59:31;;;;;;;9.07;7.90;;;20.20;87.50;;;;;;10397117;28;20218;-23
2021/07/09 07:04:55;;;;;;;8.27;6.93;;;20.20;87.00;;;;;;10375317;28;20209;-24
2021/07/09 07:10:17;;;;;;;9.03;7.13;;;20.20;86.70;;;;;;10373719;28;20206;-24
2021/07/09 07:15:40;;;;;;;7.67;6.87;;;20.20;86.90;;;;;;10373006;28;20201;-25
2021/07/09 07:21:04;;;;;;;7.07;6.03;;;20.30;86.70;;;;;;10373476;28;20590;-25
2021/07/09 07:26:26;;;;;;;7.27;6.13;;;20.20;86.70;;;;;;10386322;28;20297;-24
2021/07/09 07:31:48;;;;;;;7.50;6.17;;;20.30;86.60;;;;;;10412452;28;20216;-23
2021/07/09 07:37:12;;;;;;;7.23;5.80;;;20.30;86.60;;;;;;10412860;28;20222;-24
2021/07/09 07:42:34;;;;;;;7.67;5.93;;;20.30;86.10;;;;;;10405862;28;20688;-24
2021/07/09 07:47:56;;;;;;;8.63;6.47;;;20.30;86.20;;;;;;10413356;28;20209;-23
2021/07/09 07:53:19;;;;;;;12.90;5.40;;;20.30;86.60;;;;;;10411123;28;20194;-24
2021/07/09 07:58:41;;;;;;;9.20;6.30;;;20.30;85.70;;;;;;10408186;28;20214;-24
2021/07/09 08:04:04;;;;;;;10.23;6.97;;;20.40;86.20;;;;;;10412346;28;20193;-24
2021/07/09 08:09:27;;;;;;;7.73;6.93;;;20.30;86.70;;;;;;10405747;28;20221;-24
2021/07/09 08:14:49;;;;;;;7.57;6.87;;;20.30;87.20;;;;;;10370424;28;20666;-24
2021/07/09 08:20:12;;;;;;;9.13;6.90;;;20.40;87.00;;;;;;10374395;28;20214;-25
2021/07/09 08:25:36;;;;;;;7.53;6.77;;;20.40;86.90;;;;;;10408618;28;20586;-24
2021/07/09 08:30:58;;;;;;;7.63;6.63;;;20.40;87.30;;;;;;10386043;28;20198;-25
2021/07/09 08:36:20;;;;;;;6.70;5.90;;;20.40;87.00;;;;;;10373564;28;20233;-25
2021/07/09 08:41:44;;;;;;;5.53;5.03;;;20.40;87.20;;;;;;10394373;28;20602;-23
2021/07/09 08:47:07;;;;;;;6.47;5.87;;;20.30;86.90;;;;;;10369251;28;20241;-24
2021/07/09 08:52:29;;;;;;;6.10;5.50;;;20.30;87.60;;;;;;10369690;28;20692;-23
2021/07/09 08:57:53;;;;;;;7.30;5.03;;;20.40;87.80;;;;;;10373023;28;20226;-24
2021/07/09 09:03:18;;;;;;;5.80;5.03;;;20.40;87.20;;;;;;10376827;28;20201;-24
2021/07/09 09:08:40;;;;;;;7.40;5.27;;;20.40;87.50;;;;;;10369214;28;20237;-24
2021/07/09 09:14:25;;;;;;;5.93;5.43;;;20.50;87.70;;;;;;10369183;28;20206;-24
2021/07/09 09:20:13;;;;;;;5.67;5.17;;;20.50;87.40;;;;;;10374237;28;20218;-23
2021/07/09 09:25:39;;;;;;;7.97;5.90;;;20.50;87.70;;;;;;10378154;28;20195;-24
2021/07/09 09:31:04;;;;;;;6.10;5.30;;;20.50;87.40;;;;;;10407923;28;20669;-24
2021/07/09 09:36:26;;;;;;;6.87;5.97;;;20.50;87.10;;;;;;10410671;28;20581;-25
2021/07/09 09:42:07;;;;;;;6.57;5.97;;;20.40;86.90;;;;;;10402535;28;20677;-23
2021/07/09 09:47:32;;;;;;;9.10;5.53;;;20.40;86.60;;;;;;10408278;28;20263;-21
2021/07/09 09:52:55;;;;;;;7.63;5.60;;;20.50;86.40;;;;;;10388041;28;20198;-24
2021/07/09 09:58:19;;;;;;;6.23;4.77;;;20.50;86.50;;;;;;10395409;28;20222;-24
2021/07/09 10:03:42;;;;;;;7.70;5.53;;;20.50;86.00;;;;;;10383868;28;20733;-24
2021/07/09 10:09:04;;;;;;;5.87;5.30;;;20.40;85.50;;;;;;10369170;28;20655;-23
2021/07/09 10:14:29;;;;;;;6.50;5.27;;;20.40;85.30;;;;;;10361302;28;20663;-24
2021/07/09 10:19:54;;;;;;;7.33;5.60;;;20.40;85.50;;;;;;10373746;28;20225;-24
2021/07/09 10:25:18;;;;;;;5.80;4.83;;;20.40;86.50;;;;;;10387611;28;20213;-24
2021/07/09 10:30:42;;;;;;;7.73;5.80;;;20.30;87.10;;;;;;10391945;28;20344;-24
2021/07/09 10:36:08;;;;;;;6.27;5.77;;;20.40;86.90;;;;;;10396251;28;20198;-23
2021/07/09 10:41:31;;;;;;;6.17;5.27;;;20.40;87.40;;;;;;10392766;28;20222;-23
2021/07/09 10:46:53;;;;;;;6.40;5.80;;;20.40;87.50;;;;;;10396196;28;20245;-24
2021/07/09 10:52:43;;;;;;;5.97;5.47;;;20.40;87.70;;;;;;10374882;28;20194;-23
2021/07/09 10:58:30;;;;;;;8.20;6.40;;;20.40;88.10;;;;;;10377185;28;20226;-23
2021/07/09 11:04:10;;;;;;;7.07;6.37;;;20.40;87.90;;;;;;10395880;28;20289;-24
2021/07/09 11:09:39;;;;;;;9.57;6.40;;;20.40;87.30;;;;;;10373330;28;20211;-22
2021/07/09 11:15:01;;;;;;;8.83;7.40;;;20.40;87.70;;;;;;10374044;28;20222;-24
2021/07/09 11:20:32;;;;;;;8.30;6.30;;;20.40;87.90;;;;;;10392587;28;20754;-23
2021/07/09 11:25:56;;;;;;;7.67;6.60;;;20.40;87.70;;;;;;10371963;28;20202;-24
2021/07/09 11:31:30;;;;;;;8.30;6.80;;;20.50;87.80;;;;;;10410086;28;20734;-23
2021/07/09 11:36:55;;;;;;;6.50;5.90;;;20.50;87.80;;;;;;10383460;28;20710;-24
2021/07/09 11:42:19;;;;;;;9.97;7.80;;;20.50;87.70;;;;;;10397937;28;20225;-25
2021/07/09 11:47:43;;;;;;;10.50;7.63;;;20.50;88.00;;;;;;10413158;28;20693;-25
2021/07/09 11:53:05;;;;;;;6.90;6.20;;;20.50;87.60;;;;;;10407741;28;20201;-23
2021/07/09 11:58:29;;;;;;;6.90;6.23;;;20.50;87.40;;;;;;10407939;22;20581;-27
2021/07/09 12:03:51;;;;;;;8.37;7.57;;;20.50;87.40;;;;;;10412516;28;20724;-29
2021/07/09 12:09:19;;;;;;;9.27;7.70;;;20.50;87.40;;;;;;10400869;28;20613;-29
2021/07/09 12:14:54;;;;;;;7.53;6.70;;;20.60;87.20;;;;;;10369288;28;20681;-29
2021/07/09 12:20:19;;;;;;;8.77;7.57;;;20.50;87.00;;;;;;10370255;28;20233;-28
2021/07/09 12:25:42;;;;;;;7.23;6.47;;;20.50;87.40;;;;;;10357311;28;20206;-27
2021/07/09 12:31:06;;;;;;;7.80;6.20;;;20.60;88.00;;;;;;10409019;28;20276;-28
2021/07/09 12:36:28;;;;;;;7.93;7.13;;;20.60;86.70;;;;;;10409993;28;20201;-28
2021/07/09 12:41:50;;;;;;;7.90;7.20;;;20.60;87.00;;;;;;10371255;28;20225;-28
2021/07/09 12:47:14;;;;;;;8.57;7.47;;;20.60;87.00;;;;;;10364388;28;20226;-29
2021/07/09 12:52:36;;;;;;;8.23;7.43;;;20.60;87.00;;;;;;10359750;28;20191;-28
2021/07/09 12:58:09;;;;;;;9.27;8.37;;;20.60;86.80;;;;;;10370019;28;20235;-28
2021/07/09 13:03:34;;;;;;;12.40;9.00;;;20.60;87.10;;;;;;10384567;28;20206;-27
2021/07/09 13:09:12;;;;;;;9.07;8.27;;;20.60;87.00;;;;;;10405841;28;20224;-29
2021/07/09 13:14:34;;;;;;;9.40;8.40;;;20.70;86.70;;;;;;10369071;28;20195;-26
2021/07/09 13:19:59;;;;;;;8.47;7.07;;;20.70;86.60;;;;;;10369524;28;20709;-29
2021/07/09 13:25:24;;;;;;;7.37;6.50;;;20.60;86.60;;;;;;10369466;28;20202;-29
2021/07/09 13:30:47;;;;;;;7.60;6.90;;;20.70;86.70;;;;;;10367560;28;20427;-27
2021/07/09 13:36:14;;;;;;;6.37;5.77;;;20.80;85.90;;;;;;10369794;28;20209;-29
2021/07/09 13:41:36;;;;;;;7.77;5.40;;;20.70;86.00;;;;;;10368254;28;20222;-28
2021/07/09 13:46:58;;;;;;;7.37;5.60;;;20.70;86.10;;;;;;10372931;28;20218;-28
2021/07/09 13:52:22;;;;;;;5.93;5.30;;;20.70;86.10;;;;;;10368583;28;20190;-30
2021/07/09 13:57:44;;;;;;;7.90;4.80;;;20.60;86.10;;;;;;10370008;28;20237;-29
2021/07/09 14:03:06;;;;;;;5.00;4.50;;;20.60;85.80;;;;;;10370805;28;20198;-28
2021/07/09 14:08:29;;;;;;;4.70;4.20;;;20.60;85.80;;;;;;10371079;28;20210;-28
2021/07/09 14:13:51;;;;;;;5.30;4.80;;;20.60;85.70;;;;;;10376292;28;20198;-29
2021/07/09 14:19:14;;;;;;;5.30;4.20;;;20.60;85.60;;;;;;10371924;28;20720;-28
2021/07/09 14:24:39;;;;;;;4.60;4.20;;;20.50;85.70;;;;;;10367330;28;20202;-29
2021/07/09 14:30:01;;;;;;;5.97;4.43;;;20.60;85.60;;;;;;10374462;28;20214;-28
2021/07/09 14:35:24;;;;;;;5.93;4.63;;;20.50;85.60;;;;;;10376369;28;20669;-27
2021/07/09 14:40:47;;;;;;;5.93;5.13;;;20.50;85.40;;;;;;10375915;28;20225;-29
2021/07/09 14:46:09;;;;;;;6.00;5.27;;;20.50;85.60;;;;;;10373863;28;20218;-29
2021/07/09 14:51:31;;;;;;;6.40;5.30;;;20.50;85.90;;;;;;10375671;28;20686;-26
2021/07/09 14:56:55;;;;;;;6.03;4.83;;;20.50;85.80;;;;;;10374369;28;20256;-27
2021/07/09 15:02:17;;;;;;;9.47;7.23;;;20.50;85.90;;;;;;10373976;28;20215;-27
2021/07/09 15:07:39;;;;;;;7.50;5.93;;;20.50;87.00;;;;;;10374757;28;20229;-27
2021/07/09 15:13:03;;;;;;;7.63;5.10;;;20.50;86.50;;;;;;10374842;28;20194;-27
2021/07/09 15:18:25;;;;;;;5.77;4.80;;;20.50;86.30;;;;;;10373774;28;20229;-27
2021/07/09 15:23:47;;;;;;;8.63;5.93;;;20.50;86.30;;;;;;10338938;28;20206;-26
2021/07/09 15:29:10;;;;;;;8.53;6.00;;;20.50;86.80;;;;;;10333709;28;20218;-28
2021/07/09 15:34:33;;;;;;;7.77;5.93;;;20.50;86.50;;;;;;10333392;28;20191;-27
2021/07/09 15:39:55;;;;;;;8.40;6.83;;;20.50;86.20;;;;;;10365068;28;20315;-28
2021/07/09 15:45:18;;;;;;;7.10;6.17;;;20.40;85.40;;;;;;10413236;28;20214;-27
2021/07/09 15:50:41;;;;;;;9.23;6.67;;;20.40;85.00;;;;;;10413575;28;20221;-27
2021/07/09 15:56:04;;;;;;;7.53;6.00;;;20.40;84.70;;;;;;10392426;28;20755;-28
2021/07/09 16:01:28;;;;;;;8.87;5.97;;;20.50;84.20;;;;;;10332705;28;20214;-27
2021/07/09 16:06:51;;;;;;;9.57;5.40;;;20.40;83.70;;;;;;10331811;28;20822;-26
2021/07/09 16:12:13;;;;;;;7.97;6.00;;;20.40;84.10;;;;;;10364852;28;20198;-28
2021/07/09 16:17:37;;;;;;;9.90;5.30;;;20.40;83.90;;;;;;10371377;28;20218;-29
2021/07/09 16:22:59;;;;;;;7.27;5.40;;;20.40;83.40;;;;;;10372119;28;20225;-28
2021/07/09 16:28:21;;;;;;;6.23;4.80;;;20.40;83.70;;;;;;10371943;28;20241;-27
2021/07/09 16:33:44;;;;;;;5.77;4.80;;;20.30;83.90;;;;;;10371964;28;20621;-29
2021/07/09 16:39:08;;;;;;;8.23;4.73;;;20.30;83.90;;;;;;10371208;28;20210;-28
2021/07/09 16:44:32;;;;;;;6.47;5.23;;;20.20;84.30;;;;;;10362632;28;20318;-27
2021/07/09 16:49:55;;;;;;;6.57;5.27;;;20.20;84.00;;;;;;10369422;28;20226;-27
2021/07/09 16:55:17;;;;;;;6.83;5.30;;;20.20;84.00;;;;;;10361172;28;20199;-27
2021/07/09 17:00:40;;;;;;;7.00;5.37;;;20.10;84.30;;;;;;10369752;28;20218;-28
2021/07/09 17:06:03;;;;;;;7.27;5.43;;;20.00;85.00;;;;;;10370564;28;20201;-28
2021/07/09 17:11:25;;;;;;;8.73;5.77;;;20.00;85.00;;;;;;10367353;28;20201;-28
2021/07/09 17:16:48;;;;;;;7.50;6.53;;;20.00;85.40;;;;;;10376508;28;20218;-28
2021/07/09 17:22:11;;;;;;;8.63;6.13;;;19.90;86.00;;;;;;10377465;28;20620;-29
2021/07/09 17:27:33;;;;;;;8.73;6.50;;;19.80;87.20;;;;;;10329322;28;20215;-28
2021/07/09 17:32:55;;;;;;;7.83;6.00;;;19.80;87.10;;;;;;10353635;28;20197;-29
2021/07/09 17:38:19;;;;;;;8.33;6.43;;;19.80;87.70;;;;;;10366626;28;20210;-29
2021/07/09 17:43:41;;;;;;;8.33;6.57;;;19.80;87.20;;;;;;10363498;28;20276;-27
2021/07/09 17:49:07;;;;;;;8.53;6.87;;;19.80;86.80;;;;;;10370133;28;20202;-27
2021/07/09 17:54:34;;;;;;;11.13;6.80;;;19.80;86.50;;;;;;10369799;28;20202;-29
2021/07/09 17:59:56;;;;;;;8.10;6.83;;;19.70;85.90;;;;;;10365817;28;20560;-28
2021/07/09 18:05:18;;;;;;;8.67;7.03;;;19.60;86.10;;;;;;10368200;28;20269;-28
2021/07/09 18:10:41;;;;;;;9.43;6.53;;;19.70;85.90;;;;;;10365059;28;20221;-30
2021/07/09 18:16:04;;;;;;;10.73;6.83;;;19.60;85.70;;;;;;10384525;28;20213;-29
2021/07/09 18:21:27;;;;;;;8.23;6.53;;;19.50;86.60;;;;;;10389647;28;20210;-29
2021/07/09 18:26:50;;;;;;;9.23;7.23;;;19.50;86.40;;;;;;10365496;28;20300;-27
2021/07/09 18:32:12;;;;;;;7.63;6.77;;;19.50;86.40;;;;;;10365289;28;20194;-28
2021/07/09 18:37:34;;;;;;;9.13;7.03;;;19.50;86.50;;;;;;10364880;28;20210;-28
2021/07/09 18:43:02;;;;;;;12.53;7.40;;;19.50;86.50;;;;;;10408714;28;20217;-29
2021/07/09 18:48:24;;;;;;;7.97;6.87;;;19.50;86.70;;;;;;10363288;28;20700;-29
2021/07/09 18:53:46;;;;;;;11.70;7.80;;;19.50;86.30;;;;;;10377795;28;20650;-28
2021/07/09 18:59:10;;;;;;;10.03;6.80;;;19.40;86.30;;;;;;10376049;28;20570;-30
2021/07/09 19:04:32;;;;;;;7.97;7.00;;;19.40;86.90;;;;;;10374796;28;20822;-28
2021/07/09 19:09:54;;;;;;;7.47;6.73;;;19.40;86.70;;;;;;10378774;28;20207;-29
2021/07/09 19:15:19;;;;;;;10.97;7.77;;;19.30;87.20;;;;;;10376158;28;20197;-30
2021/07/09 19:20:41;;;;;;;14.40;6.90;;;19.30;87.60;;;;;;10367318;28;20819;-27
2021/07/09 19:26:03;;;;;;;9.53;7.63;;;19.30;87.90;;;;;;10369090;28;20553;-28
2021/07/09 19:31:27;;;;;;;8.87;7.90;;;19.30;88.50;;;;;;10368599;28;20215;-28
2021/07/09 19:36:49;;;;;;;7.60;6.87;;;19.30;88.20;;;;;;10369131;28;20225;-27
2021/07/09 19:42:11;;;;;;;8.63;7.77;;;19.20;88.20;;;;;;10396549;22;20228;-23
2021/07/09 19:47:36;;;;;;;9.73;6.53;;;19.30;87.90;;;;;;10419082;28;20588;-23
2021/07/09 19:52:58;;;;;;;12.30;7.20;;;19.40;86.90;;;;;;10443980;28;20216;-24
2021/07/09 19:58:20;;;;;;;7.47;6.50;;;19.20;87.40;;;;;;10461567;28;20208;-25
2021/07/09 20:03:44;;;;;;;10.77;6.67;;;19.20;87.80;;;;;;10452772;28;20232;-23
2021/07/09 20:09:06;;;;;;;7.27;6.53;;;19.20;87.30;;;;;;10461081;28;20719;-25
2021/07/09 20:14:28;;;;;;;7.53;6.50;;;19.30;86.80;;;;;;10459179;28;20228;-24
2021/07/09 20:19:52;;;;;;;9.63;6.67;;;19.30;86.50;;;;;;10453609;28;20208;-24
2021/07/09 20:25:15;;;;;;;10.03;6.60;;;19.40;86.40;;;;;;10453839;28;20231;-23
2021/07/09 20:30:38;;;;;;;7.57;6.07;;;19.40;86.20;;;;;;10449336;28;20197;-25
2021/07/09 20:36:01;;;;;;;9.87;6.33;;;19.50;85.80;;;;;;10450827;28;20221;-25
2021/07/09 20:41:24;;;;;;;6.03;5.43;;;19.60;85.30;;;;;;10462351;28;20219;-25
2021/07/09 20:46:46;;;;;;;6.73;5.60;;;19.70;85.30;;;;;;10494811;28;20678;-23
2021/07/09 20:52:09;;;;;;;6.20;5.70;;;19.70;84.80;;;;;;10484080;28;20214;-24
2021/07/09 20:57:32;;;;;;;7.13;5.80;;;19.70;84.50;;;;;;10444197;28;20208;-24
2021/07/09 21:02:54;;;;;;;10.97;5.80;;;19.60;84.50;;;;;;10450650;28;20221;-24
2021/07/09 21:08:18;;;;;;;8.03;5.93;;;19.60;84.50;;;;;;10450075;28;20201;-24
2021/07/09 21:13:40;;;;;;;7.40;6.20;;;19.60;84.20;;;;;;10452672;28;20217;-24
2021/07/09 21:19:02;;;;;;;6.60;5.93;;;19.70;84.20;;;;;;10445312;28;20299;-25
2021/07/09 21:24:26;;;;;;;6.30;5.70;;;19.70;84.00;;;;;;10443826;28;20691;-24
2021/07/09 21:29:48;;;;;;;6.50;5.83;;;19.60;83.90;;;;;;10451810;28;20208;-25
2021/07/09 21:35:11;;;;;;;7.67;5.93;;;19.70;83.60;;;;;;10450612;28;20212;-24
2021/07/09 21:40:34;;;;;;;7.57;5.47;;;19.60;83.20;;;;;;10451319;28;20212;-24
2021/07/09 21:45:56;;;;;;;8.57;6.23;;;19.50;83.70;;;;;;10449661;28;20227;-24
2021/07/09 21:51:18;;;;;;;6.70;5.87;;;19.40;83.60;;;;;;10450974;28;20664;-24
2021/07/09 21:56:42;;;;;;;8.40;6.23;;;19.30;83.70;;;;;;10451423;28;20197;-25
2021/07/09 22:02:09;;;;;;;7.53;6.33;;;19.30;83.90;;;;;;10450112;28;20232;-24
2021/07/09 22:07:31;;;;;;;7.60;5.73;;;19.40;83.30;;;;;;10446289;28;20564;-24
2021/07/09 22:12:54;;;;;;;6.17;5.60;;;19.50;83.50;;;;;;10452747;28;20257;-23
2021/07/09 22:18:17;;;;;;;6.63;5.97;;;19.40;83.20;;;;;;10459946;28;20529;-24
2021/07/09 22:23:41;;;;;;;6.87;5.57;;;19.40;82.20;;;;;;10459142;28;20626;-25
2021/07/09 22:29:04;;;;;;;7.27;5.83;;;19.40;82.00;;;;;;10457869;28;20672;-27
2021/07/09 22:34:26;;;;;;;7.30;6.60;;;19.40;82.50;;;;;;10457361;28;20213;-24
2021/07/09 22:39:49;;;;;;;8.97;6.97;;;19.40;82.60;;;;;;10454184;28;20193;-23
2021/07/09 22:45:14;;;;;;;7.63;6.10;;;19.40;82.20;;;;;;10417615;28;20210;-24
2021/07/09 22:50:36;;;;;;;6.63;5.90;;;19.50;82.30;;;;;;10436187;28;20185;-25
2021/07/09 22:55:58;;;;;;;6.73;6.13;;;19.40;82.30;;;;;;10454378;28;20221;-23
2021/07/09 23:01:22;;;;;;;7.80;6.60;;;19.40;82.40;;;;;;10449403;28;20220;-23
2021/07/09 23:06:44;;;;;;;6.77;6.07;;;19.40;82.30;;;;;;10457613;28;20193;-24
2021/07/09 23:12:06;;;;;;;8.27;5.60;;;19.40;82.70;;;;;;10456791;28;20209;-24
2021/07/09 23:17:30;;;;;;;6.43;5.83;;;19.40;82.10;;;;;;10455924;28;20193;-24
2021/07/09 23:22:52;;;;;;;6.73;6.03;;;19.40;82.00;;;;;;10449297;28;20256;-25
2021/07/09 23:28:14;;;;;;;7.67;5.87;;;19.50;81.60;;;;;;10416316;28;20193;-23
2021/07/09 23:33:37;;;;;;;10.43;7.20;;;19.50;81.70;;;;;;10414807;28;20210;-22
2021/07/09 23:38:59;;;;;;;6.90;6.30;;;19.30;81.50;;;;;;10423983;28;20193;-24
2021/07/09 23:44:24;;;;;;;10.23;6.97;;;19.40;82.10;;;;;;10455107;28;20255;-24
2021/07/09 23:49:48;;;;;;;10.50;7.60;;;19.50;81.80;;;;;;10455598;28;20211;-24
2021/07/09 23:55:12;;;;;;;8.97;7.33;;;19.40;81.20;;;;;;10453807;28;20209;-23
